SHT9A EGPH-EGLL
Flight info
| Callsign | SHT9A |
|---|---|
| Flight time | 0h 56m |
| Altitude | 25000 |
| Route | GOSAM DCT FENIK L612 ELBUS DCT LAKEY/N0439F330 DCT NUGRA |
| Aircraft | A320/M-SDE3FGHIJ1KRWXY/SB1 |
Departure
| Time | 2026-05-04 08:04 |
|---|---|
| Airport | Edinburgh Airport (EGPH) |
Arrival
| Time | 2026-05-04 09:01 |
|---|---|
| Airport | London Heathrow Airport (EGLL) |
| Time | Latitude | Longitude | Altitude | Speed | Heading |
|---|---|---|---|---|---|
| 2026-05-04 07:33 | 55.94854 | -3.36604 | 116 ft | 0 kts | 145° |
| 2026-05-04 07:40 | 55.94855 | -3.36604 | 117 ft | 0 kts | 145° |
| 2026-05-04 07:42 | 55.94855 | -3.36605 | 117 ft | 0 kts | 145° |
| 2026-05-04 07:57 | 55.94856 | -3.36606 | 116 ft | 2 kts | 145° |
| 2026-05-04 07:57 | 55.94877 | -3.36632 | 112 ft | 4 kts | 145° |
| 2026-05-04 07:57 | 55.94894 | -3.36653 | 114 ft | 4 kts | 144° |
| 2026-05-04 07:58 | 55.94912 | -3.36683 | 113 ft | 4 kts | 98° |
| 2026-05-04 07:58 | 55.94913 | -3.36695 | 112 ft | 4 kts | 59° |
| 2026-05-04 07:58 | 55.94927 | -3.36654 | 115 ft | 4 kts | 59° |
| 2026-05-04 07:58 | 55.94930 | -3.36645 | 115 ft | 1 kts | 58° |
| 2026-05-04 08:00 | 55.94932 | -3.36639 | 115 ft | 2 kts | 58° |
| 2026-05-04 08:02 | 55.95293 | -3.35809 | 116 ft | 21 kts | 59° |
| 2026-05-04 08:02 | 55.95373 | -3.35576 | 115 ft | 23 kts | 58° |
| 2026-05-04 08:02 | 55.95446 | -3.35411 | 115 ft | 15 kts | 25° |
| 2026-05-04 08:03 | 55.95544 | -3.35491 | 114 ft | 19 kts | 324° |
| 2026-05-04 08:03 | 55.95542 | -3.35653 | 113 ft | 14 kts | 237° |
| 2026-05-04 08:03 | 55.95448 | -3.35928 | 110 ft | 55 kts | 239° |
| 2026-05-04 08:03 | 55.95139 | -3.36842 | 114 ft | 114 kts | 239° |
| 2026-05-04 08:04 | 55.94647 | -3.38285 | 206 ft | 151 kts | 239° |
| 2026-05-04 08:04 | 55.94073 | -3.39944 | 661 ft | 163 kts | 238° |
| 2026-05-04 08:04 | 55.93460 | -3.41719 | 1296 ft | 172 kts | 239° |
| 2026-05-04 08:04 | 55.92847 | -3.43569 | 1951 ft | 175 kts | 243° |
| 2026-05-04 08:05 | 55.92246 | -3.45476 | 2579 ft | 179 kts | 242° |
| 2026-05-04 08:05 | 55.91531 | -3.47341 | 3157 ft | 186 kts | 232° |
| 2026-05-04 08:05 | 55.90654 | -3.49127 | 3673 ft | 199 kts | 231° |
| 2026-05-04 08:05 | 55.89675 | -3.51053 | 4087 ft | 221 kts | 230° |
| 2026-05-04 08:06 | 55.88599 | -3.53183 | 4608 ft | 242 kts | 230° |
| 2026-05-04 08:06 | 55.87422 | -3.55456 | 5267 ft | 255 kts | 230° |
| 2026-05-04 08:06 | 55.86213 | -3.57768 | 6136 ft | 261 kts | 230° |
| 2026-05-04 08:06 | 55.84959 | -3.60146 | 6998 ft | 266 kts | 229° |
| 2026-05-04 08:08 | 55.75217 | -3.78720 | 11514 ft | 335 kts | 229° |
| 2026-05-04 08:08 | 55.73370 | -3.81298 | 12206 ft | 344 kts | 210° |
| 2026-05-04 08:10 | 55.53868 | -3.73430 | 17353 ft | 384 kts | 162° |
| 2026-05-04 08:11 | 55.51327 | -3.71904 | 17991 ft | 387 kts | 162° |
| 2026-05-04 08:11 | 55.46168 | -3.68827 | 19114 ft | 395 kts | 162° |
| 2026-05-04 08:11 | 55.43553 | -3.67273 | 19709 ft | 398 kts | 162° |
| 2026-05-04 08:12 | 55.40915 | -3.65708 | 20281 ft | 402 kts | 162° |
| 2026-05-04 08:12 | 55.38253 | -3.64127 | 20821 ft | 406 kts | 161° |
| 2026-05-04 08:12 | 55.35565 | -3.62529 | 21362 ft | 410 kts | 161° |
| 2026-05-04 08:12 | 55.32852 | -3.60917 | 21890 ft | 413 kts | 161° |
| 2026-05-04 08:13 | 55.30114 | -3.59291 | 22407 ft | 417 kts | 161° |
| 2026-05-04 08:13 | 55.27350 | -3.57649 | 22916 ft | 421 kts | 161° |
| 2026-05-04 08:13 | 55.24563 | -3.55994 | 23413 ft | 425 kts | 161° |
| 2026-05-04 08:13 | 55.21756 | -3.54335 | 23856 ft | 429 kts | 161° |
| 2026-05-04 08:14 | 55.18920 | -3.52665 | 24276 ft | 431 kts | 161° |
| 2026-05-04 08:14 | 55.16067 | -3.50990 | 24691 ft | 434 kts | 160° |
| 2026-05-04 08:14 | 55.13194 | -3.49309 | 25093 ft | 437 kts | 160° |
| 2026-05-04 08:16 | 54.92591 | -3.37297 | 27763 ft | 455 kts | 159° |
| 2026-05-04 08:16 | 54.89577 | -3.35547 | 28148 ft | 458 kts | 159° |
| 2026-05-04 08:16 | 54.86553 | -3.33793 | 28501 ft | 461 kts | 159° |
| 2026-05-04 08:17 | 54.83503 | -3.32030 | 28847 ft | 463 kts | 159° |
| 2026-05-04 08:17 | 54.80434 | -3.30261 | 29190 ft | 466 kts | 159° |
| 2026-05-04 08:17 | 54.77348 | -3.28478 | 29531 ft | 469 kts | 159° |
| 2026-05-04 08:17 | 54.74243 | -3.26684 | 29869 ft | 472 kts | 159° |
| 2026-05-04 08:19 | 54.52483 | -3.14272 | 32842 ft | 466 kts | 158° |
| 2026-05-04 08:19 | 54.49403 | -3.12517 | 33030 ft | 466 kts | 158° |
| 2026-05-04 08:20 | 54.43277 | -3.09032 | 33057 ft | 461 kts | 157° |
| 2026-05-04 08:20 | 54.37207 | -3.05599 | 33060 ft | 459 kts | 157° |
| 2026-05-04 08:21 | 54.31178 | -3.02207 | 33064 ft | 459 kts | 157° |
| 2026-05-04 08:21 | 54.25109 | -2.98808 | 33070 ft | 459 kts | 157° |
| 2026-05-04 08:22 | 54.19047 | -2.95386 | 33089 ft | 458 kts | 156° |
| 2026-05-04 08:24 | 53.94965 | -2.81548 | 33089 ft | 456 kts | 157° |
| 2026-05-04 08:24 | 53.88959 | -2.78131 | 33096 ft | 455 kts | 157° |
| 2026-05-04 08:25 | 53.82969 | -2.74738 | 33083 ft | 454 kts | 157° |
| 2026-05-04 08:25 | 53.76976 | -2.71350 | 33081 ft | 454 kts | 157° |
| 2026-05-04 08:27 | 53.53118 | -2.57966 | 33093 ft | 451 kts | 158° |
| 2026-05-04 08:28 | 53.47160 | -2.54654 | 33085 ft | 451 kts | 158° |
| 2026-05-04 08:28 | 53.41207 | -2.51358 | 33078 ft | 450 kts | 158° |
| 2026-05-04 08:29 | 53.35264 | -2.48072 | 33073 ft | 450 kts | 158° |
| 2026-05-04 08:31 | 53.11494 | -2.35032 | 33075 ft | 448 kts | 159° |
| 2026-05-04 08:33 | 52.93122 | -2.20043 | 33074 ft | 441 kts | 146° |
| 2026-05-04 08:33 | 52.90524 | -2.17332 | 33074 ft | 441 kts | 146° |
| 2026-05-04 08:35 | 52.69720 | -1.95689 | 32307 ft | 445 kts | 147° |
| 2026-05-04 08:35 | 52.67056 | -1.92939 | 30959 ft | 458 kts | 147° |
| 2026-05-04 08:35 | 52.64357 | -1.90156 | 30153 ft | 457 kts | 147° |
| 2026-05-04 08:37 | 52.48703 | -1.74089 | 26083 ft | 427 kts | 149° |
| 2026-05-04 08:37 | 52.46198 | -1.71524 | 25475 ft | 422 kts | 149° |
| 2026-05-04 08:37 | 52.43719 | -1.68992 | 24884 ft | 418 kts | 150° |
| 2026-05-04 08:38 | 52.41264 | -1.66490 | 24305 ft | 413 kts | 150° |
| 2026-05-04 08:38 | 52.38838 | -1.64023 | 23727 ft | 409 kts | 150° |
| 2026-05-04 08:38 | 52.36463 | -1.61608 | 23088 ft | 406 kts | 150° |
| 2026-05-04 08:40 | 52.20504 | -1.45009 | 19803 ft | 378 kts | 141° |
| 2026-05-04 08:40 | 52.18530 | -1.42233 | 19439 ft | 372 kts | 141° |
| 2026-05-04 08:40 | 52.16585 | -1.39510 | 19061 ft | 366 kts | 141° |
| 2026-05-04 08:41 | 52.14659 | -1.36826 | 18698 ft | 363 kts | 141° |
| 2026-05-04 08:41 | 52.12744 | -1.34160 | 18325 ft | 361 kts | 141° |
| 2026-05-04 08:41 | 52.10838 | -1.31509 | 17927 ft | 360 kts | 141° |
| 2026-05-04 08:41 | 52.08940 | -1.28871 | 17564 ft | 358 kts | 141° |
| 2026-05-04 08:42 | 52.07052 | -1.26255 | 17195 ft | 356 kts | 141° |
| 2026-05-04 08:42 | 52.05171 | -1.23652 | 16836 ft | 354 kts | 141° |
| 2026-05-04 08:42 | 52.03301 | -1.21060 | 16473 ft | 352 kts | 141° |
| 2026-05-04 08:42 | 52.01447 | -1.18491 | 16103 ft | 349 kts | 141° |
| 2026-05-04 08:43 | 51.99604 | -1.15940 | 15751 ft | 347 kts | 141° |
| 2026-05-04 08:43 | 51.97768 | -1.13407 | 15397 ft | 345 kts | 141° |
| 2026-05-04 08:43 | 51.95964 | -1.10926 | 15052 ft | 344 kts | 141° |
| 2026-05-04 08:43 | 51.94135 | -1.08410 | 14356 ft | 349 kts | 141° |
| 2026-05-04 08:44 | 51.92283 | -1.05859 | 13948 ft | 345 kts | 141° |
| 2026-05-04 08:44 | 51.90470 | -1.03361 | 13823 ft | 331 kts | 141° |
| 2026-05-04 08:46 | 51.81966 | -0.85358 | 11808 ft | 269 kts | 118° |
| 2026-05-04 08:46 | 51.81144 | -0.82663 | 11311 ft | 266 kts | 118° |
| 2026-05-04 08:46 | 51.80327 | -0.79994 | 10802 ft | 264 kts | 118° |
| 2026-05-04 08:46 | 51.79516 | -0.77353 | 10314 ft | 261 kts | 118° |
| 2026-05-04 08:47 | 51.78710 | -0.74735 | 9818 ft | 259 kts | 118° |
| 2026-05-04 08:47 | 51.77913 | -0.72142 | 9312 ft | 256 kts | 118° |
| 2026-05-04 08:47 | 51.77130 | -0.69593 | 8931 ft | 251 kts | 118° |
| 2026-05-04 08:47 | 51.76354 | -0.67071 | 8596 ft | 250 kts | 117° |
| 2026-05-04 08:48 | 51.75581 | -0.64564 | 8268 ft | 249 kts | 118° |
| 2026-05-04 08:48 | 51.74810 | -0.62070 | 7950 ft | 249 kts | 118° |
| 2026-05-04 08:48 | 51.74036 | -0.59568 | 7617 ft | 250 kts | 118° |
| 2026-05-04 08:48 | 51.73260 | -0.57060 | 7308 ft | 250 kts | 117° |
| 2026-05-04 08:49 | 51.72365 | -0.54683 | 7032 ft | 247 kts | 131° |
| 2026-05-04 08:50 | 51.65164 | -0.43426 | 5543 ft | 237 kts | 136° |
| 2026-05-04 08:50 | 51.63977 | -0.41589 | 5311 ft | 236 kts | 136° |
| 2026-05-04 08:51 | 51.62794 | -0.39761 | 5081 ft | 235 kts | 136° |
| 2026-05-04 08:51 | 51.61625 | -0.37942 | 4688 ft | 233 kts | 134° |
| 2026-05-04 08:51 | 51.60523 | -0.36041 | 4165 ft | 231 kts | 131° |
| 2026-05-04 08:51 | 51.59452 | -0.34121 | 3649 ft | 230 kts | 130° |
| 2026-05-04 08:52 | 51.58391 | -0.32225 | 3161 ft | 227 kts | 131° |
| 2026-05-04 08:52 | 51.57450 | -0.30266 | 3007 ft | 217 kts | 122° |
| 2026-05-04 08:52 | 51.56633 | -0.28240 | 3009 ft | 217 kts | 121° |
| 2026-05-04 08:52 | 51.55832 | -0.26190 | 3009 ft | 216 kts | 121° |
| 2026-05-04 08:53 | 51.55042 | -0.24169 | 3009 ft | 217 kts | 121° |
| 2026-05-04 08:54 | 51.47906 | -0.16072 | 3003 ft | 194 kts | 245° |
| 2026-05-04 08:55 | 51.47752 | -0.18163 | 3027 ft | 191 kts | 277° |
| 2026-05-04 08:55 | 51.47819 | -0.20312 | 2902 ft | 193 kts | 270° |
| 2026-05-04 08:55 | 51.47810 | -0.22444 | 2723 ft | 188 kts | 270° |
| 2026-05-04 08:55 | 51.47803 | -0.24519 | 2452 ft | 186 kts | 270° |
| 2026-05-04 08:57 | 51.47779 | -0.37233 | 895 ft | 143 kts | 273° |
| 2026-05-04 09:01 | 51.47579 | -0.47894 | 87 ft | 22 kts | 268° |
| 2026-05-04 09:01 | 51.47578 | -0.48149 | 87 ft | 19 kts | 269° |
| 2026-05-04 09:01 | 51.47578 | -0.48343 | 88 ft | 17 kts | 269° |
| 2026-05-04 09:01 | 51.47549 | -0.48467 | 88 ft | 13 kts | 209° |
| 2026-05-04 09:02 | 51.47458 | -0.48474 | 86 ft | 10 kts | 180° |
| 2026-05-04 09:02 | 51.47407 | -0.48488 | 86 ft | 7 kts | 220° |
| 2026-05-04 09:02 | 51.47400 | -0.48569 | 86 ft | 6 kts | 269° |
| 2026-05-04 09:02 | 51.47399 | -0.48587 | 86 ft | 0 kts | 269° |